Time;durP1;ratioP1;P1;durP2;ratioP2;P2;SDS_P1;SDS_P2;PMS_P1;PMS_P2;Temp;Humidity;BMP_temperature;BMP_pressure;BME280_temperature;BME280_humidity;BME280_pressure;Samples;Min_cycle;Max_cycle;Signal;HPM_P1;HPM_P2
2022/05/26 00:00:22;;;;;;;23.08;5.97;;;22.80;99.90;;;;;;5035462;28;20064;-73
2022/05/26 00:02:49;;;;;;;14.32;5.47;;;22.80;99.90;;;;;;5053032;28;20103;-74
2022/05/26 00:05:16;;;;;;;16.52;5.40;;;22.80;99.90;;;;;;5053140;28;20043;-72
2022/05/26 00:07:44;;;;;;;12.73;5.18;;;22.60;99.90;;;;;;5053106;28;20041;-75
2022/05/26 00:10:11;;;;;;;17.95;5.13;;;22.70;99.90;;;;;;5049884;28;20040;-73
2022/05/26 00:12:39;;;;;;;13.07;5.10;;;22.30;99.90;;;;;;5034863;28;20478;-74
2022/05/26 00:15:07;;;;;;;13.48;5.60;;;22.30;99.90;;;;;;5053186;28;20036;-75
2022/05/26 00:17:34;;;;;;;14.43;6.15;;;22.30;99.90;;;;;;5031473;28;20065;-75
2022/05/26 00:20:04;;;;;;;12.50;5.43;;;22.50;99.90;;;;;;5033066;28;20286;-75
2022/05/26 00:22:31;;;;;;;12.15;5.68;;;22.10;99.90;;;;;;5033084;28;20033;-75
2022/05/26 00:24:58;;;;;;;15.10;6.00;;;22.20;99.90;;;;;;5033163;28;20091;-72
2022/05/26 00:27:26;;;;;;;17.85;6.30;;;22.40;99.90;;;;;;5033077;28;20057;-72
2022/05/26 00:29:56;;;;;;;11.27;6.28;;;22.40;99.90;;;;;;5015413;28;20069;-74
2022/05/26 00:32:24;;;;;;;15.95;6.38;;;22.50;99.90;;;;;;5014717;28;20533;-71
2022/05/26 00:34:51;;;;;;;13.68;4.85;;;22.60;99.90;;;;;;5032634;28;20053;-72
2022/05/26 00:37:37;;;;;;;9.98;5.75;;;22.50;99.90;;;;;;5015143;28;20780;-73
2022/05/26 00:40:09;;;;;;;12.38;5.53;;;22.50;99.90;;;;;;5014598;28;20053;-71
2022/05/26 00:42:37;;;;;;;18.17;5.72;;;22.50;99.90;;;;;;4997818;28;20495;-73
2022/05/26 00:45:06;;;;;;;12.07;4.63;;;22.60;99.90;;;;;;5014993;28;20046;-73
2022/05/26 00:47:39;;;;;;;18.85;7.13;;;22.50;99.90;;;;;;5014616;28;20427;-72
2022/05/26 00:50:31;;;;;;;11.23;4.82;;;22.30;99.90;;;;;;4998984;28;20482;-72
2022/05/26 00:53:27;;;;;;;13.48;5.05;;;22.30;99.90;;;;;;5014898;28;20540;-72
2022/05/26 00:56:01;;;;;;;18.85;5.07;;;22.20;99.90;;;;;;5020997;28;20057;-71
2022/05/26 00:58:33;;;;;;;17.85;5.93;;;22.10;99.90;;;;;;5032278;28;20037;-74
2022/05/26 01:01:02;;;;;;;12.63;4.97;;;21.90;99.90;;;;;;5014824;28;20099;-72
2022/05/26 01:03:40;;;;;;;11.90;5.07;;;21.90;99.90;;;;;;5032316;28;20041;-73
2022/05/26 01:06:22;;;;;;;11.82;6.30;;;21.80;99.90;;;;;;5014191;28;20045;-72
2022/05/26 01:08:54;;;;;;;11.18;5.90;;;21.80;99.90;;;;;;5032109;28;20047;-74
2022/05/26 01:11:24;;;;;;;17.20;6.05;;;21.60;99.90;;;;;;5031992;28;20044;-74
2022/05/26 01:13:59;;;;;;;13.25;6.15;;;21.30;99.90;;;;;;5031804;28;20478;-74
2022/05/26 01:16:32;;;;;;;11.77;5.43;;;21.40;99.90;;;;;;4998091;28;20548;-71
2022/05/26 01:19:39;;;;;;;11.60;5.22;;;21.70;99.90;;;;;;5031912;28;20049;-73
2022/05/26 01:22:40;;;;;;;11.77;5.63;;;21.90;99.90;;;;;;5031629;28;20061;-72
2022/05/26 01:25:26;;;;;;;13.57;7.18;;;21.90;99.90;;;;;;5014289;28;20045;-73
2022/05/26 01:28:24;;;;;;;13.27;6.10;;;21.80;99.90;;;;;;5014733;28;20041;-75
2022/05/26 01:31:13;;;;;;;10.95;5.57;;;21.90;99.90;;;;;;5032062;28;20429;-75
2022/05/26 01:33:58;;;;;;;14.23;5.90;;;21.90;99.90;;;;;;5014230;28;20140;-74
2022/05/26 01:36:51;;;;;;;10.27;5.20;;;21.70;99.90;;;;;;5031617;28;20130;-74
2022/05/26 01:39:44;;;;;;;14.75;7.18;;;21.80;99.90;;;;;;5015094;28;20407;-76
2022/05/26 01:42:12;;;;;;;10.15;5.25;;;21.90;99.90;;;;;;5031817;28;20048;-73
2022/05/26 01:44:53;;;;;;;13.07;5.25;;;21.90;99.90;;;;;;5014757;28;20502;-76
2022/05/26 01:47:40;;;;;;;13.68;5.20;;;21.70;99.90;;;;;;5031584;28;20116;-76
2022/05/26 01:50:32;;;;;;;10.82;5.43;;;21.90;99.90;;;;;;5031950;28;20045;-75
2022/05/26 01:53:14;;;;;;;16.35;6.50;;;22.00;99.90;;;;;;5031268;28;20107;-76
2022/05/26 01:55:58;;;;;;;17.05;5.75;;;21.80;99.90;;;;;;5014131;28;20502;-76
2022/05/26 01:58:31;;;;;;;14.40;5.25;;;21.70;99.90;;;;;;5013986;28;20123;-73
2022/05/26 02:01:03;;;;;;;13.43;5.75;;;21.70;99.90;;;;;;5013939;28;20091;-74
2022/05/26 02:03:33;;;;;;;18.50;6.57;;;21.60;99.90;;;;;;5014148;28;20145;-74
2022/05/26 02:06:13;;;;;;;15.07;6.78;;;21.60;99.90;;;;;;5013495;28;20052;-74
2022/05/26 02:08:49;;;;;;;11.57;5.97;;;21.40;99.90;;;;;;4997465;28;20506;-74
2022/05/26 02:11:19;;;;;;;11.80;5.80;;;21.60;99.90;;;;;;5031408;28;20045;-75
2022/05/26 02:14:20;;;;;;;11.63;6.00;;;21.30;99.90;;;;;;5031051;28;20108;-74
2022/05/26 02:16:51;;;;;;;16.85;5.93;;;21.20;99.90;;;;;;5013369;28;20046;-74
2022/05/26 02:19:21;;;;;;;;;;;21.30;99.90;;;;;;5014347;28;20064;-75
2022/05/26 02:21:51;;;;;;;15.93;6.45;;;21.20;99.90;;;;;;5013807;28;20327;-75
2022/05/26 02:24:29;;;;;;;12.38;6.55;;;21.20;99.90;;;;;;4998050;28;20042;-76
2022/05/26 02:26:57;;;;;;;16.77;6.15;;;21.40;99.90;;;;;;5014027;28;20414;-76
2022/05/26 02:32:12;;;;;;;15.43;7.03;;;21.40;99.90;;;;;;5031334;28;20042;-73
2022/05/26 02:34:41;;;;;;;20.77;6.50;;;21.20;99.90;;;;;;5031480;28;20105;-76
2022/05/26 02:37:10;;;;;;;12.95;6.78;;;21.20;99.90;;;;;;5031221;28;20076;-75
2022/05/26 02:39:37;;;;;;;13.82;7.47;;;21.30;99.90;;;;;;5031398;28;20120;-77
2022/05/26 02:42:05;;;;;;;13.18;6.70;;;21.20;99.90;;;;;;5013767;28;20649;-74
2022/05/26 02:44:34;;;;;;;12.20;6.20;;;21.10;99.90;;;;;;5031682;28;20423;-75
2022/05/26 02:47:48;;;;;;;14.48;6.97;;;21.10;99.90;;;;;;5031238;28;20076;-76
2022/05/26 02:50:40;;;;;;;20.17;7.28;;;20.70;99.90;;;;;;4969817;28;20442;-76
2022/05/26 02:53:32;;;;;;;12.93;6.63;;;20.60;99.90;;;;;;5031199;28;20109;-75
2022/05/26 02:56:30;;;;;;;14.57;6.47;;;20.50;99.90;;;;;;5014316;28;20041;-76
2022/05/26 02:59:13;;;;;;;12.52;6.32;;;20.40;99.90;;;;;;5013862;28;20558;-76
2022/05/26 03:01:49;;;;;;;14.73;6.28;;;20.60;99.90;;;;;;5031775;28;20107;-76
2022/05/26 03:04:25;;;;;;;16.08;6.45;;;20.60;99.90;;;;;;5014676;28;20037;-72
2022/05/26 03:06:58;;;;;;;17.98;6.43;;;20.80;99.90;;;;;;5035016;28;20037;-76
2022/05/26 03:09:26;;;;;;;9.48;5.47;;;20.70;99.90;;;;;;5034731;28;20060;-76
2022/05/26 03:11:57;;;;;;;15.35;6.30;;;20.60;99.90;;;;;;5034455;28;20061;-77
2022/05/26 03:14:25;;;;;;;;;;;20.70;99.90;;;;;;5035503;28;20121;-77
2022/05/26 03:16:52;;;;;;;14.77;5.25;;;20.70;99.90;;;;;;5034622;28;19921;-76
2022/05/26 03:19:20;;;;;;;12.70;5.88;;;20.70;99.90;;;;;;5034944;28;20033;-73
2022/05/26 03:21:48;;;;;;;9.45;5.72;;;20.70;99.90;;;;;;5016878;28;20045;-77
2022/05/26 03:24:16;;;;;;;9.60;5.35;;;20.70;99.90;;;;;;5034552;28;20037;-75
2022/05/26 03:26:43;;;;;;;11.60;6.07;;;20.40;99.90;;;;;;5016858;28;20037;-77
2022/05/26 03:29:10;;;;;;;17.02;6.05;;;20.60;99.90;;;;;;5034710;28;20403;-77
2022/05/26 03:31:38;;;;;;;13.60;5.25;;;20.70;99.90;;;;;;5016770;28;20426;-77
2022/05/26 03:42:22;;;;;;;17.42;7.00;;;20.70;99.90;;;;;;5034295;28;20475;-76
2022/05/26 03:44:50;;;;;;;11.20;5.78;;;20.80;99.90;;;;;;5034926;28;20072;-75
2022/05/26 03:47:17;;;;;;;18.00;5.63;;;20.60;99.90;;;;;;5015971;28;20479;-73
2022/05/26 03:49:44;;;;;;;13.70;5.43;;;20.30;99.90;;;;;;5034477;28;20037;-74
2022/05/26 03:52:12;;;;;;;16.58;5.82;;;20.50;99.90;;;;;;5034187;28;20417;-74
2022/05/26 03:54:39;;;;;;;14.70;6.32;;;20.40;99.90;;;;;;5033961;28;20099;-75
2022/05/26 03:57:07;;;;;;;13.15;5.70;;;20.40;99.90;;;;;;5016684;28;20519;-74
2022/05/26 03:59:34;;;;;;;9.32;5.70;;;20.10;99.90;;;;;;5034037;28;20363;-74
2022/05/26 04:02:02;;;;;;;16.23;6.10;;;20.10;99.90;;;;;;5034082;28;20065;-73
2022/05/26 04:04:29;;;;;;;10.13;5.82;;;20.20;99.90;;;;;;5034189;28;20416;-73
2022/05/26 04:06:57;;;;;;;12.73;6.25;;;19.80;99.90;;;;;;5034436;28;20051;-76
2022/05/26 04:09:24;;;;;;;15.18;6.00;;;19.90;99.90;;;;;;5015960;28;20049;-74
2022/05/26 04:11:53;;;;;;;17.35;7.22;;;20.50;99.90;;;;;;5034099;28;20116;-75
2022/05/26 04:14:21;;;;;;;11.80;6.15;;;20.90;99.90;;;;;;5017010;28;20042;-76
2022/05/26 04:16:48;;;;;;;12.98;7.40;;;21.10;99.90;;;;;;5033317;28;20043;-74
2022/05/26 04:19:15;;;;;;;13.38;6.65;;;21.00;99.90;;;;;;4996569;28;20046;-77
2022/05/26 04:24:54;;;;;;;16.80;7.22;;;21.10;99.90;;;;;;4972163;28;20056;-78
2022/05/26 04:27:26;;;;;;;16.02;6.45;;;21.30;99.90;;;;;;5007013;28;20627;-77
2022/05/26 04:29:53;;;;;;;18.08;8.05;;;21.10;99.90;;;;;;4996215;28;20038;-74
2022/05/26 04:32:22;;;;;;;19.35;7.38;;;21.10;99.90;;;;;;4995564;28;20046;-74
2022/05/26 04:34:50;;;;;;;13.02;6.28;;;21.30;99.90;;;;;;5013342;28;20045;-77
2022/05/26 04:37:19;;;;;;;16.92;5.75;;;21.30;99.90;;;;;;4995223;28;20041;-76
2022/05/26 04:39:47;;;;;;;23.77;7.60;;;21.40;99.90;;;;;;5013373;28;20041;-76
2022/05/26 04:42:15;;;;;;;61.97;37.45;;;21.40;99.90;;;;;;5013613;28;20064;-77
2022/05/26 04:44:44;;;;;;;17.65;8.75;;;21.30;99.90;;;;;;5013016;28;20092;-74
2022/05/26 04:47:13;;;;;;;28.25;15.20;;;20.90;99.90;;;;;;4995448;28;20416;-74
2022/05/26 04:49:41;;;;;;;21.73;10.75;;;21.00;99.90;;;;;;5013198;28;20113;-75
2022/05/26 04:52:11;;;;;;;29.30;8.93;;;21.20;99.90;;;;;;5012913;28;20129;-74
2022/05/26 04:54:39;;;;;;;18.17;7.22;;;21.30;99.90;;;;;;4979403;28;20095;-73
2022/05/26 04:57:06;;;;;;;15.85;7.50;;;21.30;99.90;;;;;;5012889;28;20074;-76
2022/05/26 04:59:34;;;;;;;20.38;9.98;;;21.30;99.90;;;;;;5012749;28;20037;-76
2022/05/26 05:02:02;;;;;;;13.32;7.45;;;21.60;99.90;;;;;;5012497;28;20404;-73
2022/05/26 05:04:29;;;;;;;16.90;7.95;;;21.70;99.90;;;;;;5012699;28;20056;-79
2022/05/26 05:06:57;;;;;;;18.63;8.27;;;21.50;99.90;;;;;;5012788;28;20045;-77
2022/05/26 05:09:24;;;;;;;16.67;7.65;;;21.50;99.90;;;;;;5012627;28;20214;-75
2022/05/26 05:11:52;;;;;;;156.45;101.47;;;21.60;99.90;;;;;;5012925;28;20124;-76
2022/05/26 05:14:19;;;;;;;193.35;128.10;;;21.60;99.90;;;;;;5012585;28;20033;-76
2022/05/26 05:16:47;;;;;;;44.40;31.15;;;21.70;99.90;;;;;;5012416;28;20100;-76
2022/05/26 05:19:18;;;;;;;22.98;12.95;;;21.70;99.90;;;;;;5020750;28;20113;-75
2022/05/26 05:22:14;;;;;;;21.40;10.40;;;21.70;99.90;;;;;;5031968;28;20072;-75
2022/05/26 05:24:51;;;;;;;25.73;12.00;;;21.70;99.90;;;;;;4973638;28;20393;-75
2022/05/26 05:27:30;;;;;;;20.27;10.30;;;21.70;99.90;;;;;;5038497;28;20033;-77
2022/05/26 05:30:01;;;;;;;22.23;9.80;;;21.80;99.90;;;;;;5041371;28;20188;-77
2022/05/26 05:32:34;;;;;;;20.27;8.40;;;21.90;99.90;;;;;;5040986;28;20075;-75
2022/05/26 05:35:11;;;;;;;29.23;11.30;;;21.90;99.90;;;;;;5022231;28;20925;-75
2022/05/26 05:37:39;;;;;;;21.30;10.30;;;22.20;99.90;;;;;;5039523;28;20128;-74
2022/05/26 05:40:07;;;;;;;20.83;9.75;;;22.20;99.90;;;;;;5037254;28;20679;-77
2022/05/26 05:42:36;;;;;;;16.80;9.10;;;22.30;99.90;;;;;;5016812;28;20041;-76
2022/05/26 05:45:03;;;;;;;21.48;10.48;;;22.20;99.90;;;;;;5038494;28;20466;-76
2022/05/26 05:47:30;;;;;;;21.63;9.68;;;22.30;99.90;;;;;;5039329;28;20434;-74
2022/05/26 05:49:58;;;;;;;18.60;9.15;;;22.40;99.90;;;;;;5040822;28;20025;-76
2022/05/26 05:52:27;;;;;;;19.98;8.32;;;22.40;99.90;;;;;;5050205;28;20041;-77
2022/05/26 05:54:56;;;;;;;23.25;9.23;;;22.40;99.90;;;;;;5052064;28;20086;-76
2022/05/26 05:57:24;;;;;;;14.27;8.55;;;22.60;99.90;;;;;;5051893;28;20136;-77
2022/05/26 05:59:51;;;;;;;21.58;8.48;;;22.40;99.90;;;;;;5051506;28;20482;-75
2022/05/26 06:02:19;;;;;;;25.90;9.05;;;22.40;99.90;;;;;;5051920;28;20539;-78
2022/05/26 06:05:04;;;;;;;29.60;8.70;;;22.40;99.90;;;;;;5051569;28;20043;-74
2022/05/26 06:07:32;;;;;;;13.45;8.35;;;22.40;99.90;;;;;;5051892;28;20041;-79
2022/05/26 06:10:00;;;;;;;16.73;8.43;;;22.60;99.90;;;;;;5034337;28;20029;-82
2022/05/26 06:12:28;;;;;;;17.73;9.38;;;22.70;99.90;;;;;;5051374;28;20441;-79
2022/05/26 06:14:55;;;;;;;24.90;14.23;;;22.70;99.90;;;;;;5051529;28;20040;-79
2022/05/26 06:17:22;;;;;;;24.52;17.02;;;22.70;99.90;;;;;;5051368;28;20049;-81
2022/05/26 06:19:50;;;;;;;55.45;42.10;;;22.80;99.90;;;;;;5022283;28;20073;-79
2022/05/26 06:22:20;;;;;;;24.50;10.85;;;23.00;99.90;;;;;;5015153;28;20465;-76
2022/05/26 06:24:48;;;;;;;19.60;8.30;;;22.80;99.90;;;;;;5041815;28;20378;-79
2022/05/26 06:30:11;;;;;;;21.27;9.10;;;22.80;99.90;;;;;;5022416;28;20041;-81
2022/05/26 06:38:20;;;;;;;16.75;7.68;;;23.00;99.90;;;;;;5021963;28;20145;-80
2022/05/26 06:40:48;;;;;;;17.40;8.23;;;23.10;99.90;;;;;;5006332;28;20117;-78
2022/05/26 06:43:16;;;;;;;15.50;8.18;;;23.30;99.90;;;;;;5043754;28;20456;-80
2022/05/26 06:45:46;;;;;;;16.90;7.55;;;23.40;99.90;;;;;;5045065;28;20033;-80
2022/05/26 06:48:14;;;;;;;12.50;6.50;;;23.30;99.90;;;;;;5045607;28;20437;-79
2022/05/26 06:50:42;;;;;;;16.67;7.28;;;23.20;99.90;;;;;;5043924;28;20040;-80
2022/05/26 06:53:10;;;;;;;15.35;6.22;;;23.30;99.90;;;;;;5027284;28;20103;-77
2022/05/26 06:55:37;;;;;;;12.95;5.80;;;23.50;99.90;;;;;;5023013;28;20061;-77
2022/05/26 06:58:05;;;;;;;14.55;6.97;;;23.30;99.90;;;;;;5043842;28;20110;-77
2022/05/26 07:00:32;;;;;;;19.70;7.97;;;23.30;99.90;;;;;;5044828;28;20115;-78
2022/05/26 07:03:00;;;;;;;14.73;6.30;;;23.40;99.90;;;;;;5045333;28;20446;-79
2022/05/26 07:05:33;;;;;;;13.30;6.35;;;23.40;99.90;;;;;;5044495;28;20401;-79
2022/05/26 07:08:01;;;;;;;14.68;6.25;;;23.50;99.90;;;;;;5041107;28;20068;-78
2022/05/26 07:10:30;;;;;;;15.40;5.97;;;23.70;99.90;;;;;;5043129;28;20041;-79
2022/05/26 07:12:57;;;;;;;15.40;6.22;;;23.90;99.90;;;;;;5040501;28;20128;-76
2022/05/26 07:15:25;;;;;;;10.77;5.45;;;24.10;99.90;;;;;;5010044;28;20064;-78
2022/05/26 07:17:52;;;;;;;10.63;5.18;;;24.10;99.90;;;;;;5024336;28;20494;-76
2022/05/26 07:20:20;;;;;;;16.58;6.88;;;24.10;99.90;;;;;;5044623;28;20029;-76
2022/05/26 07:22:47;;;;;;;12.30;5.32;;;24.10;99.90;;;;;;5050629;28;20453;-80
2022/05/26 07:25:15;;;;;;;11.60;5.35;;;24.20;99.30;;;;;;5049985;28;20414;-78
2022/05/26 07:27:42;;;;;;;13.63;6.15;;;24.30;99.00;;;;;;5026287;28;20469;-76
2022/05/26 07:30:10;;;;;;;12.73;6.05;;;24.50;99.30;;;;;;5044395;28;20044;-76
2022/05/26 07:32:37;;;;;;;10.43;4.88;;;24.60;99.50;;;;;;5034904;28;20431;-79
2022/05/26 07:35:09;;;;;;;14.30;5.65;;;24.60;98.20;;;;;;5001728;28;20397;-78
2022/05/26 07:43:15;;;;;;;20.90;6.00;;;24.70;98.60;;;;;;5014328;28;19918;-74
2022/05/26 07:45:43;;;;;;;11.63;5.13;;;24.80;98.40;;;;;;5014712;28;20068;-73
2022/05/26 07:48:10;;;;;;;15.73;5.35;;;24.90;98.60;;;;;;5014627;28;20034;-76
2022/05/26 07:50:37;;;;;;;12.45;5.72;;;25.00;98.60;;;;;;5022102;28;20049;-76
2022/05/26 07:53:05;;;;;;;10.48;4.85;;;25.00;97.70;;;;;;5054404;28;20041;-74
2022/05/26 07:55:33;;;;;;;10.82;4.82;;;24.90;97.30;;;;;;5036040;28;20065;-77
2022/05/26 07:58:00;;;;;;;9.93;4.75;;;24.90;96.90;;;;;;5035893;28;20072;-79
2022/05/26 08:00:28;;;;;;;11.50;4.57;;;24.80;96.60;;;;;;5053936;28;20119;-81
2022/05/26 08:02:55;;;;;;;12.63;4.85;;;24.90;96.30;;;;;;5053419;28;20425;-78
2022/05/26 08:05:22;;;;;;;9.77;4.57;;;25.00;95.70;;;;;;5053729;28;20401;-79
2022/05/26 08:07:49;;;;;;;10.98;4.70;;;25.20;96.20;;;;;;5054150;28;20037;-79
2022/05/26 08:10:17;;;;;;;17.77;5.32;;;25.30;95.30;;;;;;5053401;28;20045;-76
2022/05/26 08:12:44;;;;;;;16.27;6.03;;;25.40;95.70;;;;;;5053350;28;20047;-78
2022/05/26 08:15:12;;;;;;;12.50;5.43;;;25.20;96.70;;;;;;5019642;28;20140;-80
2022/05/26 08:17:39;;;;;;;14.00;5.45;;;25.30;96.70;;;;;;5034358;28;20083;-76
2022/05/26 08:20:10;;;;;;;14.07;5.03;;;25.40;95.90;;;;;;5015833;28;20430;-84
2022/05/26 08:22:37;;;;;;;;;;;25.40;96.00;;;;;;5000040;28;20037;-81
2022/05/26 08:25:06;;;;;;;7.70;4.15;;;25.50;96.40;;;;;;5033481;28;20301;-79
2022/05/26 08:27:33;;;;;;;14.32;4.88;;;25.60;95.90;;;;;;5041408;28;20116;-82
2022/05/26 08:30:00;;;;;;;15.30;5.45;;;25.50;95.50;;;;;;5039394;28;20037;-80
2022/05/26 08:32:33;;;;;;;10.20;4.75;;;25.40;95.90;;;;;;5046899;28;20041;-82
2022/05/26 08:35:05;;;;;;;10.57;4.97;;;25.50;94.50;;;;;;5035744;28;20095;-82
2022/05/26 08:37:46;;;;;;;9.35;4.60;;;25.70;94.30;;;;;;5037911;28;20036;-79
2022/05/26 08:40:33;;;;;;;12.07;4.85;;;25.80;94.30;;;;;;5035731;28;20053;-79
2022/05/26 08:43:05;;;;;;;15.50;4.45;;;25.60;93.80;;;;;;5053713;28;20063;-81
2022/05/26 08:45:38;;;;;;;10.13;4.55;;;25.80;92.60;;;;;;5034302;28;20041;-80
2022/05/26 08:48:05;;;;;;;11.40;4.72;;;25.90;91.90;;;;;;5033459;28;20052;-79
2022/05/26 08:50:34;;;;;;;8.45;4.22;;;25.90;92.30;;;;;;5034036;28;20378;-78
2022/05/26 08:53:15;;;;;;;8.63;4.68;;;25.70;92.90;;;;;;5039215;28;20198;-80
2022/05/26 08:55:52;;;;;;;12.38;4.28;;;25.80;93.20;;;;;;5021205;28;20099;-80
2022/05/26 08:58:24;;;;;;;12.45;4.43;;;25.90;90.90;;;;;;5043506;28;20032;-79
2022/05/26 09:00:53;;;;;;;18.15;4.43;;;26.00;90.80;;;;;;5042541;28;20091;-83
2022/05/26 09:03:28;;;;;;;10.30;4.57;;;26.10;89.50;;;;;;5016556;28;20037;-77
2022/05/26 09:06:03;;;;;;;14.02;5.20;;;25.90;90.60;;;;;;5035676;28;20072;-83
2022/05/26 09:14:41;;;;;;;12.82;4.55;;;26.10;90.50;;;;;;5036627;28;20064;-82
2022/05/26 09:17:13;;;;;;;9.20;4.32;;;26.40;88.10;;;;;;5033220;28;20057;-83
2022/05/26 09:19:43;;;;;;;12.48;4.57;;;26.60;88.10;;;;;;4999199;28;20061;-87
2022/05/26 09:22:40;;;;;;;11.80;3.60;;;26.60;85.70;;;;;;5032264;28;20055;-83
2022/05/26 09:25:31;;;;;;;14.30;3.97;;;26.50;81.10;;;;;;4999158;28;20044;-86
2022/05/26 09:27:59;;;;;;;10.85;4.47;;;26.90;81.90;;;;;;5032945;28;20091;-86
2022/05/26 09:30:29;;;;;;;10.10;4.10;;;27.20;81.90;;;;;;5032618;28;20091;-85
2022/05/26 09:32:57;;;;;;;11.10;4.82;;;27.30;81.50;;;;;;5014780;28;20041;-86
2022/05/26 09:35:34;;;;;;;12.77;4.78;;;27.30;80.00;;;;;;5014844;28;20463;-85
2022/05/26 09:41:16;;;;;;;9.80;3.95;;;27.40;79.20;;;;;;5034631;28;20094;-85
2022/05/26 09:44:28;;;;;;;12.45;4.00;;;27.60;80.30;;;;;;5052799;28;20040;-80
2022/05/26 09:47:26;;;;;;;9.07;4.35;;;27.50;76.50;;;;;;5033076;28;20044;-83
2022/05/26 09:49:59;;;;;;;13.00;3.78;;;27.70;76.90;;;;;;5053112;28;20033;-87
2022/05/26 09:52:49;;;;;;;17.13;5.60;;;27.70;76.80;;;;;;5031123;28;20053;-85
2022/05/26 09:55:24;;;;;;;9.02;4.20;;;27.20;80.80;;;;;;5037014;28;20061;-87
2022/05/26 09:58:34;;;;;;;8.80;4.57;;;27.30;77.10;;;;;;5037063;28;20037;-81
2022/05/26 10:01:06;;;;;;;12.77;4.70;;;27.40;78.40;;;;;;5023367;28;20449;-86
2022/05/26 10:03:53;;;;;;;8.88;4.22;;;27.50;80.10;;;;;;5053487;28;20042;-86
2022/05/26 10:06:30;;;;;;;10.65;4.45;;;27.50;78.60;;;;;;5019235;28;20349;-82
2022/05/26 10:09:01;;;;;;;10.05;4.00;;;27.60;78.00;;;;;;5053265;28;20057;-85
2022/05/26 10:11:34;;;;;;;8.80;3.92;;;28.10;73.10;;;;;;5053146;28;20091;-86
2022/05/26 10:14:20;;;;;;;11.40;4.00;;;28.30;72.60;;;;;;5021471;28;20048;-84
2022/05/26 10:17:04;;;;;;;11.73;3.97;;;28.50;71.90;;;;;;5039354;28;20041;-87
2022/05/26 10:20:02;;;;;;;10.70;5.15;;;28.70;73.00;;;;;;5057079;28;20494;-85
2022/05/26 10:23:00;;;;;;;11.10;3.90;;;28.60;73.90;;;;;;5035411;28;20042;-83
2022/05/26 10:25:37;;;;;;;13.75;4.32;;;28.60;73.20;;;;;;5041521;28;20038;-84
2022/05/26 10:28:32;;;;;;;14.45;4.55;;;28.70;74.80;;;;;;5045633;28;20040;-82
2022/05/26 10:30:59;;;;;;;89.35;12.52;;;28.50;71.80;;;;;;5008895;28;20036;-88
2022/05/26 10:33:41;;;;;;;11.02;4.00;;;28.40;71.20;;;;;;5046477;28;20053;-87
2022/05/26 10:36:36;;;;;;;7.93;3.70;;;28.60;70.80;;;;;;5026329;28;20030;-82
2022/05/26 10:39:12;;;;;;;9.65;3.95;;;28.80;71.70;;;;;;5045802;28;20060;-78
2022/05/26 10:41:43;;;;;;;12.65;4.22;;;29.10;70.90;;;;;;5050490;28;20044;-83
2022/05/26 10:44:16;;;;;;;;;;;29.30;70.60;;;;;;5056407;28;20565;-84
2022/05/26 10:46:54;;;;;;;19.58;4.07;;;29.40;70.30;;;;;;5038529;28;20297;-84
2022/05/26 10:49:34;;;;;;;10.48;4.63;;;29.40;69.40;;;;;;5054507;28;20049;-84
2022/05/26 10:52:06;;;;;;;;;;;29.50;69.20;;;;;;5029555;28;20102;-82
2022/05/26 10:54:55;;;;;;;10.88;3.95;;;29.50;68.70;;;;;;5054505;28;20282;-80
2022/05/26 10:57:51;;;;;;;15.65;4.28;;;29.20;68.20;;;;;;5038084;28;20521;-84
2022/05/26 11:00:29;;;;;;;16.17;3.83;;;29.40;67.80;;;;;;5020068;28;20557;-83
2022/05/26 11:02:59;;;;;;;8.07;3.22;;;29.30;66.60;;;;;;4998101;28;20042;-80
2022/05/26 11:05:38;;;;;;;13.77;4.15;;;29.20;66.60;;;;;;5035432;28;20045;-89
2022/05/26 11:08:31;;;;;;;11.85;3.75;;;29.50;67.10;;;;;;5025239;28;20402;-87
2022/05/26 11:11:26;;;;;;;15.02;4.60;;;29.70;64.90;;;;;;5039416;28;20092;-87
2022/05/26 11:13:55;;;;;;;10.93;4.10;;;29.70;65.10;;;;;;5035845;28;20124;-89
2022/05/26 11:19:46;;;;;;;11.40;4.28;;;30.00;65.80;;;;;;5035388;28;20124;-85
2022/05/26 11:22:17;;;;;;;11.55;3.35;;;30.00;65.10;;;;;;5018150;28;20049;-88
2022/05/26 11:24:49;;;;;;;11.38;3.58;;;29.90;64.10;;;;;;5035381;28;20406;-87
2022/05/26 11:27:59;;;;;;;9.80;3.78;;;29.90;64.10;;;;;;5036018;28;20043;-84
2022/05/26 11:37:20;;;;;;;53.42;9.38;;;30.20;63.00;;;;;;5034488;28;20124;-87
2022/05/26 11:39:53;;;;;;;9.30;4.40;;;30.50;64.20;;;;;;5037059;28;20061;-84
2022/05/26 11:42:49;;;;;;;26.83;6.20;;;30.40;63.10;;;;;;5011169;28;20061;-84
2022/05/26 11:45:28;;;;;;;14.52;3.95;;;30.60;61.70;;;;;;5037011;28;20053;-82
2022/05/26 11:47:56;;;;;;;15.32;6.07;;;30.70;62.90;;;;;;5014092;28;20088;-82
2022/05/26 11:50:50;;;;;;;14.48;4.22;;;30.70;62.70;;;;;;5030844;28;20049;-84
2022/05/26 11:53:38;;;;;;;32.15;5.78;;;31.00;63.40;;;;;;5054417;28;20418;-84
2022/05/26 11:56:28;;;;;;;15.27;4.32;;;31.20;63.10;;;;;;5010499;28;20054;-81
2022/05/26 11:59:17;;;;;;;13.75;3.92;;;31.40;61.80;;;;;;5016128;28;20503;-84
2022/05/26 12:02:12;;;;;;;26.13;5.68;;;31.30;61.90;;;;;;5008224;28;20395;-83
2022/05/26 12:04:45;;;;;;;8.23;3.67;;;31.30;60.00;;;;;;5020018;28;20061;-88
2022/05/26 12:07:23;;;;;;;16.27;4.60;;;31.20;59.40;;;;;;5019955;28;20041;-76
2022/05/26 12:09:57;;;;;;;18.15;4.22;;;31.20;59.40;;;;;;5025555;28;20040;-83
2022/05/26 12:12:34;;;;;;;13.90;4.57;;;31.10;59.60;;;;;;5023353;28;20040;-79
2022/05/26 12:15:14;;;;;;;11.93;3.60;;;31.10;59.90;;;;;;5025025;28;20468;-84
2022/05/26 12:17:51;;;;;;;11.40;3.60;;;31.10;58.40;;;;;;5022541;28;20042;-83
2022/05/26 12:20:21;;;;;;;11.32;4.00;;;31.20;58.60;;;;;;5040157;28;20092;-84
2022/05/26 12:22:54;;;;;;;11.68;3.53;;;31.30;59.30;;;;;;5040031;28;20029;-83
2022/05/26 12:25:23;;;;;;;11.38;3.63;;;31.40;58.80;;;;;;5035077;28;20128;-81
2022/05/26 12:28:09;;;;;;;14.68;4.32;;;31.60;58.30;;;;;;5023594;28;20034;-78
2022/05/26 12:30:49;;;;;;;10.52;3.58;;;31.50;60.40;;;;;;5022157;28;20045;-80
2022/05/26 12:33:22;;;;;;;13.73;4.75;;;31.50;59.70;;;;;;5016844;28;20441;-79
2022/05/26 12:36:27;;;;;;;14.02;4.13;;;31.80;58.50;;;;;;5024229;28;20096;-80
2022/05/26 12:39:10;;;;;;;11.63;4.82;;;32.20;60.00;;;;;;4996687;28;20069;-76
2022/05/26 12:41:56;;;;;;;12.10;3.92;;;32.40;58.10;;;;;;5034810;28;20382;-78
2022/05/26 12:44:57;;;;;;;9.07;4.28;;;32.20;57.60;;;;;;5036711;28;20395;-76
2022/05/26 12:47:34;;;;;;;12.27;4.00;;;32.20;57.80;;;;;;5022094;28;20041;-77
2022/05/26 12:50:07;;;;;;;10.95;3.95;;;32.30;56.70;;;;;;5025048;28;20072;-77
2022/05/26 12:52:48;;;;;;;8.65;3.75;;;32.10;56.00;;;;;;5022929;28;20057;-82
2022/05/26 12:55:25;;;;;;;9.40;3.50;;;31.90;57.30;;;;;;5022622;28;20456;-80
2022/05/26 12:58:11;;;;;;;12.20;3.60;;;31.90;57.00;;;;;;5006834;28;20103;-79
2022/05/26 13:00:45;;;;;;;12.10;3.90;;;32.20;56.70;;;;;;5007404;28;20119;-80
2022/05/26 13:03:13;;;;;;;15.45;5.32;;;32.40;56.60;;;;;;5021542;28;20088;-82
2022/05/26 13:05:47;;;;;;;14.43;4.57;;;32.50;56.30;;;;;;5029021;28;20065;-75
2022/05/26 13:08:27;;;;;;;13.55;7.60;;;32.70;57.80;;;;;;5032239;28;20077;-79
2022/05/26 13:10:57;;;;;;;9.35;3.95;;;32.90;56.80;;;;;;5031813;28;20126;-79
2022/05/26 13:13:49;;;;;;;14.77;3.45;;;33.00;55.80;;;;;;5031924;28;20049;-79
2022/05/26 13:16:39;;;;;;;228.60;33.67;;;33.10;54.80;;;;;;5031913;28;20439;-76
2022/05/26 13:19:12;;;;;;;69.90;11.13;;;33.20;56.20;;;;;;5031828;28;20461;-76
2022/05/26 13:21:45;;;;;;;16.77;4.18;;;33.30;55.20;;;;;;5032347;28;20045;-80
2022/05/26 13:24:32;;;;;;;16.02;3.60;;;33.10;55.50;;;;;;5014597;28;20499;-78
2022/05/26 13:27:09;;;;;;;19.92;4.28;;;33.10;55.30;;;;;;5032386;28;20557;-77
2022/05/26 13:29:43;;;;;;;8.55;3.90;;;33.30;55.10;;;;;;5042720;28;20382;-77
2022/05/26 13:35:01;;;;;;;11.32;3.95;;;33.70;54.40;;;;;;5052398;28;20049;-80
2022/05/26 13:37:31;;;;;;;10.50;3.90;;;33.70;53.40;;;;;;5052023;28;20116;-79
2022/05/26 13:40:16;;;;;;;13.75;4.45;;;33.80;51.00;;;;;;5042670;28;20042;-82
2022/05/26 13:42:46;;;;;;;13.95;3.28;;;33.40;53.90;;;;;;5016471;28;20434;-76
2022/05/26 13:45:30;;;;;;;14.25;3.58;;;33.10;51.80;;;;;;5003188;28;20150;-79
2022/05/26 13:48:37;;;;;;;14.48;3.70;;;32.80;53.10;;;;;;5002305;28;20571;-82
2022/05/26 13:51:20;;;;;;;15.13;3.90;;;32.90;51.90;;;;;;5004541;28;20066;-80
2022/05/26 13:53:50;;;;;;;12.48;3.90;;;33.20;54.30;;;;;;5010098;28;20065;-79
2022/05/26 13:56:31;;;;;;;10.60;4.40;;;33.30;51.50;;;;;;5001640;28;20044;-81
2022/05/26 13:59:05;;;;;;;7.88;3.83;;;33.20;50.60;;;;;;5023311;28;20034;-80
2022/05/26 14:01:33;;;;;;;12.98;3.50;;;33.30;52.40;;;;;;5023209;28;20050;-80
2022/05/26 14:04:18;;;;;;;19.88;3.70;;;33.20;51.70;;;;;;5016714;28;20034;-82
2022/05/26 14:06:46;;;;;;;16.08;3.97;;;33.10;53.80;;;;;;5001823;28;20522;-85